Aviation Digital Data Service (ADDS)

Output produced by METARs form (0323 UTC 21 September 2017)
found at http://www.aviationweather.gov/adds/metars/
 
VQPR 210300Z 00000KT 6000 SCT010 SCT030 BKN080 19/15 Q1022 NOSIG